Ciudad Obregón International Airport
MMCN : now visible

Airfield :











YOU CAN JOIN US ON...

 
LOGIN :

Register | Disclaimer

   EN    FR    IT 

 









Legend :    VFR   Marginal VFR   IFR   Intensive IFR   Very Intensive IFR
Visi :
Ceiling :
>= 8 km
>= 3000ft
5 to 8 km
1000 to 3000 ft
1500m to 5 km
500 to 1000 ft
800 to 1500m
200 to 500 ft
< 800m
< 200 ft
Symbols :   Thunderstorms  Fog  Heavy snow  Heavy precipitations  Wind > 20 kt






- Airport Elevation : 243 ft
- IATA code : CEN


MMCN - Ciudad Obregón International

CURRENT METAR :
  • 242355Z 24008KT 10SM FEW030 SCT200 32/20 A2981 RMK SLP095 8/103 DSNT CB N E ISOL MDT CU HZY

EXPIRED METARs :
  • 242252Z 00000KT 10SM SCT030 34/20 A2981 RMK 8/100 DSNT TCU N ISOL MDT CU HZY

TAF TAF MMCN
Valid from the 24 at 18:00 until the 25 at 18:00 UTC


241627Z 2418/2518 26010KT P6SM SCT030
FM250300 20005KT P6SM SKC
BECMG 2509/2510 10004KT
FM251600 29008KT P6SM SKC
MMFR FIR / North America



MET'MAP, your aeronautical weather chart ! - Copyright ORBIFLY December 2007 - Disclaimer

ORBIFLY MET'MAP TEAM :

Programming & Development : Alexandra Zaïnal
Original concept : Baudouin d'Aumeries
Technical & hardware support : Manuel Goepfert
Assistance : Marc-Olivier Méhu




SOURCES & CREDITS :

   NOAA       Earth
Advisory